createdAt,value
2023-05-20T00:01:57.062Z,94579.00
2023-05-20T00:06:00.577Z,94564.00
2023-05-20T00:10:04.241Z,94568.00
2023-05-20T00:14:09.181Z,94565.00
2023-05-20T00:18:12.785Z,94568.00
2023-05-20T00:22:16.543Z,94565.00
2023-05-20T00:26:21.614Z,94575.00
2023-05-20T00:30:31.968Z,94558.00
2023-05-20T00:34:35.848Z,94551.00
2023-05-20T00:38:39.333Z,94551.00
2023-05-20T00:42:43.243Z,94549.00
2023-05-20T00:46:49.997Z,94549.00
2023-05-20T00:50:53.879Z,94546.00
2023-05-20T00:54:59.069Z,94531.00
2023-05-20T00:59:02.799Z,94540.00
2023-05-20T01:03:08.026Z,94537.00
2023-05-20T01:07:11.898Z,94541.00
2023-05-20T01:11:23.755Z,94545.00
2023-05-20T01:15:29.235Z,94550.00
2023-05-20T01:19:39.853Z,94538.00
2023-05-20T01:23:44.733Z,94548.00
2023-05-20T01:27:50.366Z,94532.00
2023-05-20T01:31:56.515Z,94533.00
2023-05-20T01:36:01.530Z,94533.00
2023-05-20T01:40:10.359Z,94537.00
2023-05-20T01:44:13.882Z,94522.00
2023-05-20T01:48:18.494Z,94527.00
2023-05-20T01:52:23.777Z,94523.00
2023-05-20T01:56:28.750Z,94519.00
2023-05-20T02:00:33.816Z,94520.00
2023-05-20T02:04:37.332Z,94518.00
2023-05-20T02:08:40.981Z,94516.00
2023-05-20T02:12:48.005Z,94521.00
2023-05-20T02:16:52.150Z,94518.00
2023-05-20T02:20:56.324Z,94520.00
2023-05-20T02:25:00.042Z,94517.00
2023-05-20T02:29:05.301Z,94528.00
2023-05-20T02:33:09.944Z,94533.00
2023-05-20T02:37:13.521Z,94526.00
2023-05-20T02:41:17.072Z,94519.00
2023-05-20T02:45:21.882Z,94518.00
2023-05-20T02:49:25.667Z,94517.00
2023-05-20T02:53:29.492Z,94519.00
2023-05-20T02:57:35.226Z,94516.00
2023-05-20T03:01:40.771Z,94520.00
2023-05-20T03:05:46.137Z,94518.00
2023-05-20T03:09:50.935Z,94514.00
2023-05-20T03:13:54.756Z,94513.00
2023-05-20T03:18:00.034Z,94508.00
2023-05-20T03:22:03.774Z,94510.00
2023-05-20T03:26:10.028Z,94520.00
2023-05-20T03:30:14.271Z,94524.00
2023-05-20T03:34:20.616Z,94523.00
2023-05-20T03:38:26.106Z,94517.00
2023-05-20T03:42:29.958Z,94507.00
2023-05-20T03:46:34.584Z,94526.00
2023-05-20T03:50:40.630Z,94522.00
2023-05-20T03:54:44.356Z,94528.00
2023-05-20T03:58:47.890Z,94531.00
2023-05-20T04:02:51.458Z,94530.00
2023-05-20T04:06:57.619Z,94537.00
2023-05-20T04:11:02.497Z,94534.00
2023-05-20T04:15:06.985Z,94538.00
2023-05-20T04:19:24.363Z,94535.00
2023-05-20T04:23:29.740Z,94535.00
2023-05-20T04:27:34.991Z,94537.00
2023-05-20T04:31:39.192Z,94547.00
2023-05-20T04:35:45.050Z,94539.00
2023-05-20T04:39:51.298Z,94531.00
2023-05-20T04:43:59.903Z,94517.00
2023-05-20T04:48:04.162Z,94516.00
2023-05-20T04:52:08.889Z,94521.00
2023-05-20T04:56:13.928Z,94528.00
2023-05-20T05:00:17.618Z,94531.00
2023-05-20T05:04:21.126Z,94541.00
2023-05-20T05:08:24.873Z,94544.00
2023-05-20T05:12:30.889Z,94544.00
2023-05-20T05:16:35.561Z,94543.00
2023-05-20T05:20:39.234Z,94535.00
2023-05-20T05:24:43.001Z,94540.00
2023-05-20T05:28:47.984Z,94536.00
2023-05-20T05:32:51.856Z,94538.00
2023-05-20T05:36:55.585Z,94539.00
2023-05-20T05:40:59.276Z,94531.00
2023-05-20T05:45:04.487Z,94550.00
2023-05-20T05:49:08.110Z,94535.00
2023-05-20T05:53:12.860Z,94548.00
2023-05-20T05:57:19.559Z,94537.00
2023-05-20T06:01:26.082Z,94533.00
2023-05-20T06:05:30.070Z,94532.00
2023-05-20T06:09:34.446Z,94542.00
2023-05-20T06:13:39.919Z,94538.00
2023-05-20T06:17:44.917Z,94541.00
2023-05-20T06:21:49.726Z,94540.00
2023-05-20T06:25:54.149Z,94539.00
2023-05-20T06:29:57.681Z,94545.00
2023-05-20T06:34:02.950Z,94545.00
2023-05-20T06:38:06.472Z,94543.00
2023-05-20T06:42:10.633Z,94544.00
2023-05-20T06:46:14.220Z,94538.00
2023-05-20T06:50:42.233Z,94540.00
2023-05-20T06:54:46.040Z,94538.00
2023-05-20T06:58:51.263Z,94539.00
2023-05-20T07:02:55.474Z,94535.00
2023-05-20T07:07:00.730Z,94524.00
2023-05-20T07:11:04.565Z,94523.00
2023-05-20T07:15:09.462Z,94517.00
2023-05-20T07:19:13.425Z,94513.00
2023-05-20T07:23:18.510Z,94504.00
2023-05-20T07:27:28.995Z,94512.00
2023-05-20T07:31:32.777Z,94505.00
2023-05-20T07:35:36.738Z,94509.00
2023-05-20T07:39:41.915Z,94517.00
2023-05-20T07:43:45.568Z,94516.00
2023-05-20T07:47:50.233Z,94517.00
2023-05-20T07:51:54.351Z,94511.00
2023-05-20T07:55:59.399Z,94531.00
2023-05-20T08:00:06.447Z,94530.00
2023-05-20T08:04:20.396Z,94524.00
2023-05-20T08:08:24.645Z,94521.00
2023-05-20T08:12:37.499Z,94517.00
2023-05-20T08:16:41.222Z,94523.00
2023-05-20T08:20:45.164Z,94514.00
2023-05-20T08:24:49.236Z,94516.00
2023-05-20T08:28:54.935Z,94516.00
2023-05-20T08:33:00.129Z,94510.00
2023-05-20T08:37:04.825Z,94509.00
2023-05-20T08:41:08.681Z,94507.00
2023-05-20T08:45:18.978Z,94517.00
2023-05-20T08:49:23.359Z,94524.00
2023-05-20T08:53:28.171Z,94515.00
2023-05-20T08:57:34.061Z,94517.00
2023-05-20T09:01:44.486Z,94517.00
2023-05-20T09:05:48.359Z,94519.00
2023-05-20T09:09:52.011Z,94509.00
2023-05-20T09:13:55.612Z,94513.00
2023-05-20T09:18:03.657Z,94497.00
2023-05-20T09:22:07.479Z,94503.00
2023-05-20T09:26:11.262Z,94509.00
2023-05-20T09:30:15.127Z,94511.00
2023-05-20T09:34:22.116Z,94504.00
2023-05-20T09:38:25.638Z,94513.00
2023-05-20T09:42:36.756Z,94514.00
2023-05-20T09:46:41.953Z,94504.00
2023-05-20T09:50:47.138Z,94503.00
2023-05-20T09:54:52.360Z,94485.00
2023-05-20T09:58:58.575Z,94487.00
2023-05-20T10:03:03.622Z,94480.00
2023-05-20T10:07:42.805Z,94485.00
2023-05-20T10:11:53.744Z,94486.00
2023-05-20T10:16:06.535Z,94479.00
2023-05-20T10:20:12.002Z,94483.00
2023-05-20T10:24:35.018Z,94481.00
2023-05-20T10:28:41.464Z,94489.00
2023-05-20T10:32:53.724Z,94487.00
2023-05-20T10:37:01.680Z,94472.00
2023-05-20T10:41:12.766Z,94473.00
2023-05-20T10:45:27.766Z,94464.00
2023-05-20T10:49:36.288Z,94446.00
2023-05-20T10:53:41.699Z,94456.00
2023-05-20T10:57:47.491Z,94464.00
2023-05-20T11:01:51.078Z,94451.00
2023-05-20T11:05:54.588Z,94452.00
2023-05-20T11:09:58.351Z,94449.00
2023-05-20T11:14:03.858Z,94438.00
2023-05-20T11:18:07.405Z,94445.00
2023-05-20T11:22:11.238Z,94439.00
2023-05-20T11:26:14.752Z,94442.00
2023-05-20T11:30:21.241Z,94390.00
2023-05-20T11:34:26.807Z,94446.00
2023-05-20T11:38:31.693Z,94445.00
2023-05-20T11:42:35.340Z,94454.00
2023-05-20T11:46:45.136Z,94451.00
2023-05-20T11:50:49.534Z,94454.00
2023-05-20T11:54:54.584Z,94458.00
2023-05-20T11:58:59.370Z,94446.00
2023-05-20T12:03:04.802Z,94447.00
2023-05-20T12:07:09.508Z,94447.00
2023-05-20T12:11:14.339Z,94434.00
2023-05-20T12:15:17.852Z,94424.00
2023-05-20T12:19:22.802Z,94422.00
2023-05-20T12:23:26.608Z,94426.00
2023-05-20T12:27:30.984Z,94423.00
2023-05-20T12:31:35.049Z,94412.00
2023-05-20T12:35:41.720Z,94413.00
2023-05-20T12:39:46.638Z,94411.00
2023-05-20T12:43:50.260Z,94419.00
2023-05-20T12:47:54.462Z,94419.00
2023-05-20T12:52:01.477Z,94405.00
2023-05-20T12:56:08.039Z,94403.00
2023-05-20T13:00:12.877Z,94406.00
2023-05-20T13:04:16.771Z,94392.00
2023-05-20T13:08:21.899Z,94405.00
2023-05-20T13:12:25.360Z,94388.00
2023-05-20T13:16:29.252Z,94388.00
2023-05-20T13:20:32.860Z,94395.00
2023-05-20T13:24:39.322Z,94390.00
2023-05-20T13:28:42.777Z,94381.00
2023-05-20T13:32:46.443Z,94386.00
2023-05-20T13:36:50.073Z,94387.00
2023-05-20T13:40:59.388Z,94390.00
2023-05-20T13:45:02.962Z,94381.00
2023-05-20T13:49:07.519Z,94383.00
2023-05-20T13:53:14.566Z,94381.00
2023-05-20T13:57:21.266Z,94380.00
2023-05-20T14:01:26.671Z,94372.00
2023-05-20T14:05:30.110Z,94375.00
2023-05-20T14:09:33.968Z,94369.00
2023-05-20T14:13:39.234Z,94373.00
2023-05-20T14:17:43.009Z,94372.00
2023-05-20T14:21:46.604Z,94368.00
2023-05-20T14:25:50.897Z,94335.00
2023-05-20T14:29:55.661Z,94351.00
2023-05-20T14:33:59.199Z,94357.00
2023-05-20T14:38:02.658Z,94346.00
2023-05-20T14:42:07.698Z,94351.00
2023-05-20T14:46:12.792Z,94352.00
2023-05-20T14:50:16.668Z,94344.00
2023-05-20T14:54:25.100Z,94348.00
2023-05-20T14:58:28.993Z,94348.00
2023-05-20T15:02:34.252Z,94344.00
2023-05-20T15:06:38.502Z,94334.00
2023-05-20T15:10:42.305Z,94334.00
2023-05-20T15:14:45.930Z,94339.00
2023-05-20T15:18:51.156Z,94330.00
2023-05-20T15:22:55.697Z,94326.00
2023-05-20T15:26:59.234Z,94326.00
2023-05-20T15:31:02.670Z,94325.00
2023-05-20T15:35:08.852Z,94323.00
2023-05-20T15:39:12.779Z,94323.00
2023-05-20T15:43:16.437Z,94313.00
2023-05-20T15:47:20.202Z,94315.00
2023-05-20T15:51:25.308Z,94305.00
2023-05-20T15:55:29.051Z,94302.00
2023-05-20T15:59:32.529Z,94313.00
2023-05-20T16:03:36.341Z,94307.00
2023-05-20T16:07:41.663Z,94316.00
2023-05-20T16:11:45.328Z,94314.00
2023-05-20T16:15:50.054Z,94303.00
2023-05-20T16:19:53.894Z,94307.00
2023-05-20T16:24:00.433Z,94309.00
2023-05-20T16:28:04.524Z,94291.00
2023-05-20T16:32:08.350Z,94296.00
2023-05-20T16:36:14.234Z,94299.00
2023-05-20T16:40:22.745Z,94301.00
2023-05-20T16:44:32.064Z,94308.00
2023-05-20T16:48:39.871Z,94306.00
2023-05-20T16:52:47.852Z,94311.00
2023-05-20T16:57:00.576Z,94310.00
2023-05-20T17:01:09.383Z,94311.00
2023-05-20T17:05:16.751Z,94303.00
2023-05-20T17:09:22.294Z,94292.00
2023-05-20T17:13:31.212Z,94323.00
2023-05-20T17:17:43.128Z,94327.00
2023-05-20T17:21:52.270Z,94319.00
2023-05-20T17:26:02.370Z,94326.00
2023-05-20T17:30:17.064Z,94333.00
2023-05-20T17:34:21.927Z,94334.00
2023-05-20T17:38:29.298Z,94327.00
2023-05-20T17:42:40.218Z,94338.00
2023-05-20T17:46:53.276Z,94332.00
2023-05-20T17:51:00.775Z,94336.00
2023-05-20T17:55:06.848Z,94341.00
2023-05-20T17:59:10.954Z,94339.00
2023-05-20T18:03:20.018Z,94339.00
2023-05-20T18:07:27.877Z,94343.00
2023-05-20T18:11:33.287Z,94346.00
2023-05-20T18:15:36.798Z,94356.00
2023-05-20T18:19:45.188Z,94355.00
2023-05-20T18:23:49.022Z,94358.00
2023-05-20T18:27:54.558Z,94362.00
2023-05-20T18:32:02.610Z,94355.00
2023-05-20T18:36:09.701Z,94360.00
2023-05-20T18:40:22.902Z,94357.00
2023-05-20T18:44:32.005Z,94371.00
2023-05-20T18:48:42.723Z,94375.00
2023-05-20T18:52:52.834Z,94367.00
2023-05-20T18:57:00.224Z,94381.00
2023-05-20T19:01:12.178Z,94384.00
2023-05-20T19:05:23.744Z,94376.00
2023-05-20T19:09:34.684Z,94373.00
2023-05-20T19:13:45.287Z,94376.00
2023-05-20T19:17:58.298Z,94383.00
2023-05-20T19:22:11.693Z,94387.00
2023-05-20T19:26:27.460Z,94388.00
2023-05-20T19:30:46.045Z,94394.00
2023-05-20T19:34:57.809Z,94391.00
2023-05-20T19:39:07.208Z,94399.00
2023-05-20T19:43:13.591Z,94396.00
2023-05-20T19:47:17.306Z,94396.00
2023-05-20T19:51:35.386Z,94404.00
2023-05-20T19:55:41.197Z,94393.00
2023-05-20T19:59:53.484Z,94403.00
2023-05-20T20:03:58.157Z,94406.00
2023-05-20T20:08:02.997Z,94403.00
2023-05-20T20:12:08.204Z,94406.00
2023-05-20T20:16:13.837Z,94415.00
2023-05-20T20:20:17.306Z,94410.00
2023-05-20T20:24:21.255Z,94405.00
2023-05-20T20:28:25.676Z,94403.00
2023-05-20T20:32:33.640Z,94403.00
2023-05-20T20:36:39.719Z,94405.00
2023-05-20T20:40:48.307Z,94412.00
2023-05-20T20:44:57.861Z,94416.00
2023-05-20T20:49:04.888Z,94406.00
2023-05-20T20:53:08.579Z,94415.00
2023-05-20T20:57:14.434Z,94413.00
2023-05-20T21:01:18.402Z,94400.00
2023-05-20T21:05:28.204Z,94399.00
2023-05-20T21:09:32.589Z,94399.00
2023-05-20T21:13:37.679Z,94398.00
2023-05-20T21:17:43.908Z,94394.00
2023-05-20T21:21:48.823Z,94398.00
2023-05-20T21:25:52.973Z,94401.00
2023-05-20T21:29:58.653Z,94398.00
2023-05-20T21:34:02.841Z,94395.00
2023-05-20T21:38:08.154Z,94404.00
2023-05-20T21:42:11.984Z,94407.00
2023-05-20T21:46:16.408Z,94398.00
2023-05-20T21:50:20.152Z,94392.00
2023-05-20T21:54:25.334Z,94394.00
2023-05-20T21:58:28.865Z,94397.00
2023-05-20T22:02:33.375Z,94395.00
2023-05-20T22:06:36.898Z,94389.00
2023-05-20T22:10:41.823Z,94384.00
2023-05-20T22:14:45.303Z,94384.00
2023-05-20T22:18:49.884Z,94387.00
2023-05-20T22:22:53.299Z,94390.00
2023-05-20T22:26:58.387Z,94382.00
2023-05-20T22:31:02.349Z,94383.00
2023-05-20T22:35:06.633Z,94376.00
2023-05-20T22:39:10.200Z,94378.00
2023-05-20T22:43:16.677Z,94378.00
2023-05-20T22:47:20.380Z,94370.00
2023-05-20T22:51:24.759Z,94368.00
2023-05-20T22:55:29.316Z,94368.00
2023-05-20T22:59:34.427Z,94364.00
2023-05-20T23:03:38.180Z,94358.00
2023-05-20T23:07:41.588Z,94356.00
2023-05-20T23:11:45.271Z,94364.00
2023-05-20T23:15:50.281Z,94357.00
2023-05-20T23:19:54.097Z,94360.00
2023-05-20T23:23:57.482Z,94359.00
2023-05-20T23:28:01.313Z,94350.00
2023-05-20T23:32:06.783Z,94350.00
2023-05-20T23:36:10.449Z,94347.00
2023-05-20T23:40:14.334Z,94343.00
2023-05-20T23:44:17.951Z,94332.00
2023-05-20T23:48:23.458Z,94337.00
2023-05-20T23:52:28.325Z,94334.00
2023-05-20T23:56:31.840Z,94316.00
